sensor_id;sensor_type;location;lat;lon;timestamp;temperature;humidity
22769;DHT22;13001;51.968;5.918;2024-01-30T00:00:06;9.90;99.90
22769;DHT22;13001;51.968;5.918;2024-01-30T00:02:34;10.00;99.90
22769;DHT22;13001;51.968;5.918;2024-01-30T00:05:02;10.00;99.90
22769;DHT22;13001;51.968;5.918;2024-01-30T00:07:30;10.00;99.90
22769;DHT22;13001;51.968;5.918;2024-01-30T00:09:57;10.00;99.90
22769;DHT22;13001;51.968;5.918;2024-01-30T00:12:25;10.00;99.90
22769;DHT22;13001;51.968;5.918;2024-01-30T00:14:52;10.00;99.90
22769;DHT22;13001;51.968;5.918;2024-01-30T00:17:20;10.00;99.90
22769;DHT22;13001;51.968;5.918;2024-01-30T00:19:48;10.00;99.90
22769;DHT22;13001;51.968;5.918;2024-01-30T00:22:15;9.90;99.90
22769;DHT22;13001;51.968;5.918;2024-01-30T00:24:43;9.90;99.90
22769;DHT22;13001;51.968;5.918;2024-01-30T00:27:11;9.80;99.90
22769;DHT22;13001;51.968;5.918;2024-01-30T00:29:38;9.80;99.90
22769;DHT22;13001;51.968;5.918;2024-01-30T00:32:06;9.70;99.90
22769;DHT22;13001;51.968;5.918;2024-01-30T00:34:35;9.70;99.90
22769;DHT22;13001;51.968;5.918;2024-01-30T00:37:02;9.70;99.90
22769;DHT22;13001;51.968;5.918;2024-01-30T00:39:30;9.70;99.90
22769;DHT22;13001;51.968;5.918;2024-01-30T00:41:57;9.60;99.90
22769;DHT22;13001;51.968;5.918;2024-01-30T00:44:25;9.60;99.90
22769;DHT22;13001;51.968;5.918;2024-01-30T00:46:52;9.60;99.90
22769;DHT22;13001;51.968;5.918;2024-01-30T00:49:20;9.50;99.90
22769;DHT22;13001;51.968;5.918;2024-01-30T00:51:47;9.50;99.90
22769;DHT22;13001;51.968;5.918;2024-01-30T00:54:15;9.50;99.90
22769;DHT22;13001;51.968;5.918;2024-01-30T00:56:42;9.50;99.90
22769;DHT22;13001;51.968;5.918;2024-01-30T00:59:10;9.50;99.90
22769;DHT22;13001;51.968;5.918;2024-01-30T01:01:38;9.50;99.90
22769;DHT22;13001;51.968;5.918;2024-01-30T01:04:06;9.50;99.90
22769;DHT22;13001;51.968;5.918;2024-01-30T01:06:34;9.50;99.90
22769;DHT22;13001;51.968;5.918;2024-01-30T01:09:01;9.50;99.90
22769;DHT22;13001;51.968;5.918;2024-01-30T01:11:30;9.50;99.90
22769;DHT22;13001;51.968;5.918;2024-01-30T01:13:58;9.50;99.90
22769;DHT22;13001;51.968;5.918;2024-01-30T01:16:25;9.50;99.90
22769;DHT22;13001;51.968;5.918;2024-01-30T01:18:53;9.50;99.90
22769;DHT22;13001;51.968;5.918;2024-01-30T01:21:20;9.50;99.90
22769;DHT22;13001;51.968;5.918;2024-01-30T01:23:48;9.50;99.90
22769;DHT22;13001;51.968;5.918;2024-01-30T01:26:15;9.50;99.90
22769;DHT22;13001;51.968;5.918;2024-01-30T01:28:43;9.40;99.90
22769;DHT22;13001;51.968;5.918;2024-01-30T01:31:10;9.40;99.90
22769;DHT22;13001;51.968;5.918;2024-01-30T01:33:38;9.40;99.90
22769;DHT22;13001;51.968;5.918;2024-01-30T01:36:05;9.40;99.90
22769;DHT22;13001;51.968;5.918;2024-01-30T01:38:33;9.30;99.90
22769;DHT22;13001;51.968;5.918;2024-01-30T01:41:02;9.30;99.90
22769;DHT22;13001;51.968;5.918;2024-01-30T01:43:29;9.30;99.90
22769;DHT22;13001;51.968;5.918;2024-01-30T01:45:57;9.30;99.90
22769;DHT22;13001;51.968;5.918;2024-01-30T01:48:25;9.30;99.90
22769;DHT22;13001;51.968;5.918;2024-01-30T01:50:53;9.30;99.90
22769;DHT22;13001;51.968;5.918;2024-01-30T01:53:21;9.30;99.90
22769;DHT22;13001;51.968;5.918;2024-01-30T01:55:49;9.30;99.90
22769;DHT22;13001;51.968;5.918;2024-01-30T01:58:20;9.30;99.90
22769;DHT22;13001;51.968;5.918;2024-01-30T02:00:51;9.30;99.90
22769;DHT22;13001;51.968;5.918;2024-01-30T02:03:18;9.30;99.90
22769;DHT22;13001;51.968;5.918;2024-01-30T02:05:49;9.30;99.90
22769;DHT22;13001;51.968;5.918;2024-01-30T02:08:17;9.30;99.90
22769;DHT22;13001;51.968;5.918;2024-01-30T02:10:45;9.20;99.90
22769;DHT22;13001;51.968;5.918;2024-01-30T02:13:12;9.30;99.90
22769;DHT22;13001;51.968;5.918;2024-01-30T02:15:40;9.20;99.90
22769;DHT22;13001;51.968;5.918;2024-01-30T02:18:07;9.20;99.90
22769;DHT22;13001;51.968;5.918;2024-01-30T02:20:35;9.20;99.90
22769;DHT22;13001;51.968;5.918;2024-01-30T02:23:05;9.20;99.90
22769;DHT22;13001;51.968;5.918;2024-01-30T02:25:39;9.20;99.90
22769;DHT22;13001;51.968;5.918;2024-01-30T02:28:14;9.20;99.90
22769;DHT22;13001;51.968;5.918;2024-01-30T02:30:45;9.20;99.90
22769;DHT22;13001;51.968;5.918;2024-01-30T02:33:13;9.20;99.90
22769;DHT22;13001;51.968;5.918;2024-01-30T02:35:41;9.20;99.90
22769;DHT22;13001;51.968;5.918;2024-01-30T02:38:09;9.20;99.90
22769;DHT22;13001;51.968;5.918;2024-01-30T02:40:36;9.10;99.90
22769;DHT22;13001;51.968;5.918;2024-01-30T02:43:04;9.20;99.90
22769;DHT22;13001;51.968;5.918;2024-01-30T02:45:32;9.10;99.90
22769;DHT22;13001;51.968;5.918;2024-01-30T02:47:59;9.10;99.90
22769;DHT22;13001;51.968;5.918;2024-01-30T02:50:27;9.10;99.90
22769;DHT22;13001;51.968;5.918;2024-01-30T02:52:54;9.10;99.90
22769;DHT22;13001;51.968;5.918;2024-01-30T02:55:22;9.10;99.90
22769;DHT22;13001;51.968;5.918;2024-01-30T02:57:49;9.00;99.90
22769;DHT22;13001;51.968;5.918;2024-01-30T03:00:17;9.00;99.90
22769;DHT22;13001;51.968;5.918;2024-01-30T03:02:44;9.00;99.90
22769;DHT22;13001;51.968;5.918;2024-01-30T03:05:12;9.00;99.90
22769;DHT22;13001;51.968;5.918;2024-01-30T03:07:39;9.00;99.90
22769;DHT22;13001;51.968;5.918;2024-01-30T03:10:07;9.00;99.90
22769;DHT22;13001;51.968;5.918;2024-01-30T03:12:35;9.00;99.90
22769;DHT22;13001;51.968;5.918;2024-01-30T03:15:02;9.00;99.90
22769;DHT22;13001;51.968;5.918;2024-01-30T03:17:30;9.00;99.90
22769;DHT22;13001;51.968;5.918;2024-01-30T03:19:57;9.00;99.90
22769;DHT22;13001;51.968;5.918;2024-01-30T03:22:25;9.00;99.90
22769;DHT22;13001;51.968;5.918;2024-01-30T03:24:52;9.00;99.90
22769;DHT22;13001;51.968;5.918;2024-01-30T03:27:20;9.10;99.90
22769;DHT22;13001;51.968;5.918;2024-01-30T03:29:47;9.10;99.90
22769;DHT22;13001;51.968;5.918;2024-01-30T03:32:15;9.10;99.90
22769;DHT22;13001;51.968;5.918;2024-01-30T03:34:42;9.10;99.90
22769;DHT22;13001;51.968;5.918;2024-01-30T03:37:10;9.10;99.90
22769;DHT22;13001;51.968;5.918;2024-01-30T03:39:38;9.10;99.90
22769;DHT22;13001;51.968;5.918;2024-01-30T03:42:05;9.10;99.90
22769;DHT22;13001;51.968;5.918;2024-01-30T03:44:34;9.10;99.90
22769;DHT22;13001;51.968;5.918;2024-01-30T03:47:02;9.10;99.90
22769;DHT22;13001;51.968;5.918;2024-01-30T03:49:31;9.10;99.90
22769;DHT22;13001;51.968;5.918;2024-01-30T03:51:58;9.10;99.90
22769;DHT22;13001;51.968;5.918;2024-01-30T03:54:26;9.10;99.90
22769;DHT22;13001;51.968;5.918;2024-01-30T03:56:53;9.10;99.90
22769;DHT22;13001;51.968;5.918;2024-01-30T03:59:21;9.10;99.90
22769;DHT22;13001;51.968;5.918;2024-01-30T04:01:51;9.10;99.90
22769;DHT22;13001;51.968;5.918;2024-01-30T04:04:18;9.10;99.90
22769;DHT22;13001;51.968;5.918;2024-01-30T04:06:46;9.10;99.90
22769;DHT22;13001;51.968;5.918;2024-01-30T04:09:14;9.10;99.90
22769;DHT22;13001;51.968;5.918;2024-01-30T04:11:42;9.10;99.90
22769;DHT22;13001;51.968;5.918;2024-01-30T04:14:10;9.10;99.90
22769;DHT22;13001;51.968;5.918;2024-01-30T04:16:38;9.10;99.90
22769;DHT22;13001;51.968;5.918;2024-01-30T04:19:05;9.10;99.90
22769;DHT22;13001;51.968;5.918;2024-01-30T04:21:33;9.10;99.90
22769;DHT22;13001;51.968;5.918;2024-01-30T04:24:00;9.10;99.90
22769;DHT22;13001;51.968;5.918;2024-01-30T04:26:28;9.10;99.90
22769;DHT22;13001;51.968;5.918;2024-01-30T04:28:55;9.20;99.90
22769;DHT22;13001;51.968;5.918;2024-01-30T04:31:23;9.20;99.90
22769;DHT22;13001;51.968;5.918;2024-01-30T04:33:50;9.20;99.90
22769;DHT22;13001;51.968;5.918;2024-01-30T04:36:18;9.20;99.90
22769;DHT22;13001;51.968;5.918;2024-01-30T04:38:45;9.20;99.90
22769;DHT22;13001;51.968;5.918;2024-01-30T04:41:15;9.20;99.90
22769;DHT22;13001;51.968;5.918;2024-01-30T04:43:42;9.20;99.90
22769;DHT22;13001;51.968;5.918;2024-01-30T04:46:09;9.20;99.90
22769;DHT22;13001;51.968;5.918;2024-01-30T04:48:37;9.20;99.90
22769;DHT22;13001;51.968;5.918;2024-01-30T04:51:05;9.20;99.90
22769;DHT22;13001;51.968;5.918;2024-01-30T04:53:32;9.10;99.90
22769;DHT22;13001;51.968;5.918;2024-01-30T04:56:00;9.10;99.90
22769;DHT22;13001;51.968;5.918;2024-01-30T04:58:27;9.10;99.90
22769;DHT22;13001;51.968;5.918;2024-01-30T05:00:55;9.00;99.90
22769;DHT22;13001;51.968;5.918;2024-01-30T05:03:22;9.00;99.90
22769;DHT22;13001;51.968;5.918;2024-01-30T05:05:50;9.00;99.90
22769;DHT22;13001;51.968;5.918;2024-01-30T05:08:18;8.90;99.90
22769;DHT22;13001;51.968;5.918;2024-01-30T05:10:45;9.00;99.90
22769;DHT22;13001;51.968;5.918;2024-01-30T05:13:13;9.00;99.90
22769;DHT22;13001;51.968;5.918;2024-01-30T05:15:40;8.90;99.90
22769;DHT22;13001;51.968;5.918;2024-01-30T05:18:08;9.00;99.90
22769;DHT22;13001;51.968;5.918;2024-01-30T05:20:35;9.10;99.90
22769;DHT22;13001;51.968;5.918;2024-01-30T05:23:03;9.10;99.90
22769;DHT22;13001;51.968;5.918;2024-01-30T05:25:30;9.20;99.90
22769;DHT22;13001;51.968;5.918;2024-01-30T05:27:58;9.30;99.90
22769;DHT22;13001;51.968;5.918;2024-01-30T05:30:25;9.40;99.90
22769;DHT22;13001;51.968;5.918;2024-01-30T05:32:53;9.40;99.90
22769;DHT22;13001;51.968;5.918;2024-01-30T05:35:20;9.30;99.90
22769;DHT22;13001;51.968;5.918;2024-01-30T05:37:49;9.40;99.90
22769;DHT22;13001;51.968;5.918;2024-01-30T05:40:16;9.30;99.90
22769;DHT22;13001;51.968;5.918;2024-01-30T05:42:44;9.30;99.90
22769;DHT22;13001;51.968;5.918;2024-01-30T05:45:11;9.30;99.90
22769;DHT22;13001;51.968;5.918;2024-01-30T05:47:39;9.40;99.90
22769;DHT22;13001;51.968;5.918;2024-01-30T05:50:07;9.40;99.90
22769;DHT22;13001;51.968;5.918;2024-01-30T05:52:35;9.40;99.90
22769;DHT22;13001;51.968;5.918;2024-01-30T05:55:02;9.40;99.90
22769;DHT22;13001;51.968;5.918;2024-01-30T05:57:30;9.40;99.90
22769;DHT22;13001;51.968;5.918;2024-01-30T05:59:57;9.50;99.90
22769;DHT22;13001;51.968;5.918;2024-01-30T06:02:25;9.60;99.90
22769;DHT22;13001;51.968;5.918;2024-01-30T06:04:52;9.60;99.90
22769;DHT22;13001;51.968;5.918;2024-01-30T06:07:20;9.60;99.90
22769;DHT22;13001;51.968;5.918;2024-01-30T06:09:48;9.60;99.90
22769;DHT22;13001;51.968;5.918;2024-01-30T06:12:16;9.60;99.90
22769;DHT22;13001;51.968;5.918;2024-01-30T06:14:43;9.60;99.90
22769;DHT22;13001;51.968;5.918;2024-01-30T06:17:11;9.60;99.90
22769;DHT22;13001;51.968;5.918;2024-01-30T06:19:39;9.60;99.90
22769;DHT22;13001;51.968;5.918;2024-01-30T06:22:06;9.60;99.90
22769;DHT22;13001;51.968;5.918;2024-01-30T06:24:34;9.60;99.90
22769;DHT22;13001;51.968;5.918;2024-01-30T06:27:03;9.60;99.90
22769;DHT22;13001;51.968;5.918;2024-01-30T06:29:30;9.60;99.90
22769;DHT22;13001;51.968;5.918;2024-01-30T06:31:58;9.60;99.90
22769;DHT22;13001;51.968;5.918;2024-01-30T06:34:25;9.70;99.90
22769;DHT22;13001;51.968;5.918;2024-01-30T06:36:53;9.70;99.90
22769;DHT22;13001;51.968;5.918;2024-01-30T06:39:20;9.70;99.90
22769;DHT22;13001;51.968;5.918;2024-01-30T06:41:48;9.70;99.90
22769;DHT22;13001;51.968;5.918;2024-01-30T06:44:15;9.70;99.90
22769;DHT22;13001;51.968;5.918;2024-01-30T06:46:43;9.70;99.90
22769;DHT22;13001;51.968;5.918;2024-01-30T06:49:10;9.80;99.90
22769;DHT22;13001;51.968;5.918;2024-01-30T06:51:38;9.80;99.90
22769;DHT22;13001;51.968;5.918;2024-01-30T06:54:05;9.80;99.90
22769;DHT22;13001;51.968;5.918;2024-01-30T06:56:33;10.00;99.90
22769;DHT22;13001;51.968;5.918;2024-01-30T06:59:00;10.00;99.90
22769;DHT22;13001;51.968;5.918;2024-01-30T07:01:29;10.10;99.90
22769;DHT22;13001;51.968;5.918;2024-01-30T07:03:57;10.20;99.90
22769;DHT22;13001;51.968;5.918;2024-01-30T07:06:24;10.20;99.90
22769;DHT22;13001;51.968;5.918;2024-01-30T07:08:52;10.20;99.90
22769;DHT22;13001;51.968;5.918;2024-01-30T07:11:20;10.30;99.90
22769;DHT22;13001;51.968;5.918;2024-01-30T07:13:51;10.30;99.90
22769;DHT22;13001;51.968;5.918;2024-01-30T07:16:19;10.30;99.90
22769;DHT22;13001;51.968;5.918;2024-01-30T07:18:48;10.40;99.90
22769;DHT22;13001;51.968;5.918;2024-01-30T07:21:16;10.40;99.90
22769;DHT22;13001;51.968;5.918;2024-01-30T07:23:44;10.40;99.90
22769;DHT22;13001;51.968;5.918;2024-01-30T07:26:11;10.40;99.90
22769;DHT22;13001;51.968;5.918;2024-01-30T07:28:39;10.40;99.90
22769;DHT22;13001;51.968;5.918;2024-01-30T07:31:06;10.40;99.90
22769;DHT22;13001;51.968;5.918;2024-01-30T07:33:34;10.50;99.90
22769;DHT22;13001;51.968;5.918;2024-01-30T07:36:02;10.50;99.90
22769;DHT22;13001;51.968;5.918;2024-01-30T07:38:31;10.50;99.90
22769;DHT22;13001;51.968;5.918;2024-01-30T07:40:59;10.50;99.90
22769;DHT22;13001;51.968;5.918;2024-01-30T07:43:26;10.50;99.90
22769;DHT22;13001;51.968;5.918;2024-01-30T07:45:54;10.50;99.90
22769;DHT22;13001;51.968;5.918;2024-01-30T07:48:22;10.60;99.90
22769;DHT22;13001;51.968;5.918;2024-01-30T07:50:49;10.60;99.90
22769;DHT22;13001;51.968;5.918;2024-01-30T07:53:17;10.60;99.90
22769;DHT22;13001;51.968;5.918;2024-01-30T07:55:44;10.70;99.90
22769;DHT22;13001;51.968;5.918;2024-01-30T07:58:13;10.60;99.90
22769;DHT22;13001;51.968;5.918;2024-01-30T08:00:40;10.70;99.90
22769;DHT22;13001;51.968;5.918;2024-01-30T08:03:08;10.70;99.90
22769;DHT22;13001;51.968;5.918;2024-01-30T08:05:38;10.70;99.90
22769;DHT22;13001;51.968;5.918;2024-01-30T08:08:07;10.80;99.90
22769;DHT22;13001;51.968;5.918;2024-01-30T08:10:35;10.80;99.90
22769;DHT22;13001;51.968;5.918;2024-01-30T08:13:04;10.80;99.90
22769;DHT22;13001;51.968;5.918;2024-01-30T08:15:32;10.90;99.90
22769;DHT22;13001;51.968;5.918;2024-01-30T08:17:59;10.90;99.90
22769;DHT22;13001;51.968;5.918;2024-01-30T08:20:27;10.90;99.90
22769;DHT22;13001;51.968;5.918;2024-01-30T08:22:57;11.00;99.90
22769;DHT22;13001;51.968;5.918;2024-01-30T08:25:29;11.10;99.90
22769;DHT22;13001;51.968;5.918;2024-01-30T08:27:57;11.10;99.90
22769;DHT22;13001;51.968;5.918;2024-01-30T08:30:24;11.20;99.90
22769;DHT22;13001;51.968;5.918;2024-01-30T08:32:52;11.30;99.90
22769;DHT22;13001;51.968;5.918;2024-01-30T08:35:19;11.30;99.90
22769;DHT22;13001;51.968;5.918;2024-01-30T08:37:47;11.40;99.90
22769;DHT22;13001;51.968;5.918;2024-01-30T08:40:14;11.40;99.90
22769;DHT22;13001;51.968;5.918;2024-01-30T08:42:42;11.50;99.90
22769;DHT22;13001;51.968;5.918;2024-01-30T08:45:10;11.50;99.90
22769;DHT22;13001;51.968;5.918;2024-01-30T08:47:39;11.60;99.90
22769;DHT22;13001;51.968;5.918;2024-01-30T08:50:07;11.70;99.90
22769;DHT22;13001;51.968;5.918;2024-01-30T08:52:34;11.70;99.90
22769;DHT22;13001;51.968;5.918;2024-01-30T08:55:02;11.70;99.90
22769;DHT22;13001;51.968;5.918;2024-01-30T08:57:31;11.70;99.90
22769;DHT22;13001;51.968;5.918;2024-01-30T09:00:00;11.70;99.90
22769;DHT22;13001;51.968;5.918;2024-01-30T09:02:30;11.80;99.90
22769;DHT22;13001;51.968;5.918;2024-01-30T09:04:59;11.80;99.90
22769;DHT22;13001;51.968;5.918;2024-01-30T09:07:27;11.80;99.90
22769;DHT22;13001;51.968;5.918;2024-01-30T09:09:56;11.80;99.90
22769;DHT22;13001;51.968;5.918;2024-01-30T09:12:25;11.80;99.90
22769;DHT22;13001;51.968;5.918;2024-01-30T09:14:53;11.90;99.90
22769;DHT22;13001;51.968;5.918;2024-01-30T09:17:21;11.90;99.90
22769;DHT22;13001;51.968;5.918;2024-01-30T09:19:50;12.00;99.90
22769;DHT22;13001;51.968;5.918;2024-01-30T09:22:21;12.00;99.90
22769;DHT22;13001;51.968;5.918;2024-01-30T09:24:48;12.00;99.90
22769;DHT22;13001;51.968;5.918;2024-01-30T09:27:16;12.00;99.90
22769;DHT22;13001;51.968;5.918;2024-01-30T09:29:45;12.00;99.90
22769;DHT22;13001;51.968;5.918;2024-01-30T09:32:12;12.00;99.90
22769;DHT22;13001;51.968;5.918;2024-01-30T09:34:40;12.10;99.90
22769;DHT22;13001;51.968;5.918;2024-01-30T09:37:08;12.10;99.90
22769;DHT22;13001;51.968;5.918;2024-01-30T09:39:35;12.10;99.90
22769;DHT22;13001;51.968;5.918;2024-01-30T09:42:11;12.20;99.90
22769;DHT22;13001;51.968;5.918;2024-01-30T09:44:40;12.20;99.90
22769;DHT22;13001;51.968;5.918;2024-01-30T09:47:10;12.30;99.90
22769;DHT22;13001;51.968;5.918;2024-01-30T09:49:38;12.30;99.90
22769;DHT22;13001;51.968;5.918;2024-01-30T09:52:07;12.40;99.90
22769;DHT22;13001;51.968;5.918;2024-01-30T09:54:35;12.50;99.90
22769;DHT22;13001;51.968;5.918;2024-01-30T09:57:03;12.50;99.90
22769;DHT22;13001;51.968;5.918;2024-01-30T09:59:31;12.50;99.90
22769;DHT22;13001;51.968;5.918;2024-01-30T10:02:00;12.50;99.90
22769;DHT22;13001;51.968;5.918;2024-01-30T10:04:30;12.50;99.90
22769;DHT22;13001;51.968;5.918;2024-01-30T10:06:58;12.50;99.90
22769;DHT22;13001;51.968;5.918;2024-01-30T10:09:27;12.60;99.90
22769;DHT22;13001;51.968;5.918;2024-01-30T10:11:54;12.60;99.90
22769;DHT22;13001;51.968;5.918;2024-01-30T10:14:21;12.60;99.90
22769;DHT22;13001;51.968;5.918;2024-01-30T10:16:49;12.70;99.90
22769;DHT22;13001;51.968;5.918;2024-01-30T10:19:17;12.80;99.90
22769;DHT22;13001;51.968;5.918;2024-01-30T10:21:44;12.80;99.90
22769;DHT22;13001;51.968;5.918;2024-01-30T10:24:13;13.00;99.90
22769;DHT22;13001;51.968;5.918;2024-01-30T10:26:43;13.10;99.90
22769;DHT22;13001;51.968;5.918;2024-01-30T10:29:10;13.10;99.90
22769;DHT22;13001;51.968;5.918;2024-01-30T10:31:37;13.00;99.90
22769;DHT22;13001;51.968;5.918;2024-01-30T10:34:05;12.90;99.90
22769;DHT22;13001;51.968;5.918;2024-01-30T10:36:36;12.80;99.90
22769;DHT22;13001;51.968;5.918;2024-01-30T10:39:04;12.80;99.90
22769;DHT22;13001;51.968;5.918;2024-01-30T10:41:43;12.80;99.90
22769;DHT22;13001;51.968;5.918;2024-01-30T10:44:08;12.80;99.90
22769;DHT22;13001;51.968;5.918;2024-01-30T10:46:37;12.80;99.90
22769;DHT22;13001;51.968;5.918;2024-01-30T10:49:05;12.90;99.90
22769;DHT22;13001;51.968;5.918;2024-01-30T10:51:34;13.00;99.90
22769;DHT22;13001;51.968;5.918;2024-01-30T10:54:04;12.90;99.90
22769;DHT22;13001;51.968;5.918;2024-01-30T10:56:32;12.80;99.90
22769;DHT22;13001;51.968;5.918;2024-01-30T10:59:01;12.80;99.90
22769;DHT22;13001;51.968;5.918;2024-01-30T11:01:29;12.70;99.90
22769;DHT22;13001;51.968;5.918;2024-01-30T11:03:56;12.70;99.90
22769;DHT22;13001;51.968;5.918;2024-01-30T11:06:25;12.70;99.90
22769;DHT22;13001;51.968;5.918;2024-01-30T11:09:05;12.70;99.90
22769;DHT22;13001;51.968;5.918;2024-01-30T11:11:55;12.70;99.90
22769;DHT22;13001;51.968;5.918;2024-01-30T11:14:30;12.70;99.90
22769;DHT22;13001;51.968;5.918;2024-01-30T11:17:00;12.70;99.90
22769;DHT22;13001;51.968;5.918;2024-01-30T11:19:31;12.70;99.90
22769;DHT22;13001;51.968;5.918;2024-01-30T11:21:59;12.90;99.90
22769;DHT22;13001;51.968;5.918;2024-01-30T11:24:28;13.00;99.90
22769;DHT22;13001;51.968;5.918;2024-01-30T11:26:59;13.10;99.90
22769;DHT22;13001;51.968;5.918;2024-01-30T11:29:29;13.30;99.90
22769;DHT22;13001;51.968;5.918;2024-01-30T11:32:00;13.40;99.90
22769;DHT22;13001;51.968;5.918;2024-01-30T11:34:27;13.50;99.90
22769;DHT22;13001;51.968;5.918;2024-01-30T11:37:03;13.60;99.90
22769;DHT22;13001;51.968;5.918;2024-01-30T11:39:31;13.60;99.90
22769;DHT22;13001;51.968;5.918;2024-01-30T11:41:59;13.60;99.90
22769;DHT22;13001;51.968;5.918;2024-01-30T11:44:27;13.60;99.90
22769;DHT22;13001;51.968;5.918;2024-01-30T11:46:54;13.60;99.90
22769;DHT22;13001;51.968;5.918;2024-01-30T11:49:22;13.50;99.90
22769;DHT22;13001;51.968;5.918;2024-01-30T11:51:50;13.50;99.90
22769;DHT22;13001;51.968;5.918;2024-01-30T11:54:19;13.50;99.90
22769;DHT22;13001;51.968;5.918;2024-01-30T11:56:46;13.50;99.90
22769;DHT22;13001;51.968;5.918;2024-01-30T11:59:14;13.60;99.90
22769;DHT22;13001;51.968;5.918;2024-01-30T12:01:42;13.70;99.90
22769;DHT22;13001;51.968;5.918;2024-01-30T12:04:09;13.90;99.90
22769;DHT22;13001;51.968;5.918;2024-01-30T12:06:37;13.90;99.90
22769;DHT22;13001;51.968;5.918;2024-01-30T12:09:05;13.90;99.90
22769;DHT22;13001;51.968;5.918;2024-01-30T12:11:48;14.00;99.90
22769;DHT22;13001;51.968;5.918;2024-01-30T12:14:17;13.90;99.90
22769;DHT22;13001;51.968;5.918;2024-01-30T12:16:50;13.80;99.90
22769;DHT22;13001;51.968;5.918;2024-01-30T12:19:26;13.80;99.90
22769;DHT22;13001;51.968;5.918;2024-01-30T12:21:57;13.70;99.90
22769;DHT22;13001;51.968;5.918;2024-01-30T12:24:26;13.70;99.90
22769;DHT22;13001;51.968;5.918;2024-01-30T12:26:58;13.60;99.90
22769;DHT22;13001;51.968;5.918;2024-01-30T12:29:25;13.60;99.90
22769;DHT22;13001;51.968;5.918;2024-01-30T12:31:55;13.70;99.90
22769;DHT22;13001;51.968;5.918;2024-01-30T12:34:25;13.70;99.80
22769;DHT22;13001;51.968;5.918;2024-01-30T12:36:53;13.60;99.80
22769;DHT22;13001;51.968;5.918;2024-01-30T12:39:21;13.60;99.80
22769;DHT22;13001;51.968;5.918;2024-01-30T12:41:49;13.70;99.90
22769;DHT22;13001;51.968;5.918;2024-01-30T12:44:17;13.60;99.60
22769;DHT22;13001;51.968;5.918;2024-01-30T12:46:47;13.60;99.50
22769;DHT22;13001;51.968;5.918;2024-01-30T12:49:14;13.70;99.20
22769;DHT22;13001;51.968;5.918;2024-01-30T12:51:42;13.60;99.00
22769;DHT22;13001;51.968;5.918;2024-01-30T12:54:10;13.50;98.40
22769;DHT22;13001;51.968;5.918;2024-01-30T12:56:39;13.40;98.60
22769;DHT22;13001;51.968;5.918;2024-01-30T12:59:06;13.40;98.10
22769;DHT22;13001;51.968;5.918;2024-01-30T13:01:34;13.50;98.00
22769;DHT22;13001;51.968;5.918;2024-01-30T13:04:01;13.50;98.00
22769;DHT22;13001;51.968;5.918;2024-01-30T13:06:29;13.60;97.80
22769;DHT22;13001;51.968;5.918;2024-01-30T13:08:57;13.70;97.80
22769;DHT22;13001;51.968;5.918;2024-01-30T13:11:24;13.90;97.60
22769;DHT22;13001;51.968;5.918;2024-01-30T13:13:52;14.00;97.30
22769;DHT22;13001;51.968;5.918;2024-01-30T13:16:20;13.90;97.20
22769;DHT22;13001;51.968;5.918;2024-01-30T13:18:47;13.90;96.90
22769;DHT22;13001;51.968;5.918;2024-01-30T13:21:15;13.80;96.80
22769;DHT22;13001;51.968;5.918;2024-01-30T13:23:42;13.70;96.70
22769;DHT22;13001;51.968;5.918;2024-01-30T13:26:10;13.60;96.60
22769;DHT22;13001;51.968;5.918;2024-01-30T13:28:38;13.50;96.60
22769;DHT22;13001;51.968;5.918;2024-01-30T13:31:06;13.30;96.60
22769;DHT22;13001;51.968;5.918;2024-01-30T13:33:33;13.20;96.60
22769;DHT22;13001;51.968;5.918;2024-01-30T13:36:01;13.10;96.60
22769;DHT22;13001;51.968;5.918;2024-01-30T13:38:28;13.10;96.60
22769;DHT22;13001;51.968;5.918;2024-01-30T13:40:56;13.00;96.40
22769;DHT22;13001;51.968;5.918;2024-01-30T13:43:23;13.00;95.50
22769;DHT22;13001;51.968;5.918;2024-01-30T13:45:51;13.10;94.90
22769;DHT22;13001;51.968;5.918;2024-01-30T13:48:20;13.10;94.30
22769;DHT22;13001;51.968;5.918;2024-01-30T13:50:48;13.10;93.80
22769;DHT22;13001;51.968;5.918;2024-01-30T13:53:16;13.00;93.60
22769;DHT22;13001;51.968;5.918;2024-01-30T13:55:43;12.90;93.90
22769;DHT22;13001;51.968;5.918;2024-01-30T13:58:10;12.90;94.30
22769;DHT22;13001;51.968;5.918;2024-01-30T14:00:38;12.80;94.70
22769;DHT22;13001;51.968;5.918;2024-01-30T14:03:06;12.70;95.20
22769;DHT22;13001;51.968;5.918;2024-01-30T14:05:35;12.50;95.40
22769;DHT22;13001;51.968;5.918;2024-01-30T14:08:03;12.40;95.80
22769;DHT22;13001;51.968;5.918;2024-01-30T14:10:32;12.30;96.10
22769;DHT22;13001;51.968;5.918;2024-01-30T14:13:00;12.20;96.40
22769;DHT22;13001;51.968;5.918;2024-01-30T14:15:28;12.10;96.80
22769;DHT22;13001;51.968;5.918;2024-01-30T14:17:56;12.00;97.00
22769;DHT22;13001;51.968;5.918;2024-01-30T14:20:23;11.90;97.10
22769;DHT22;13001;51.968;5.918;2024-01-30T14:22:51;11.90;97.20
22769;DHT22;13001;51.968;5.918;2024-01-30T14:25:20;11.90;97.30
22769;DHT22;13001;51.968;5.918;2024-01-30T14:27:48;11.90;97.30
22769;DHT22;13001;51.968;5.918;2024-01-30T14:30:15;11.90;97.40
22769;DHT22;13001;51.968;5.918;2024-01-30T14:32:44;11.90;97.40
22769;DHT22;13001;51.968;5.918;2024-01-30T14:35:11;11.90;97.30
22769;DHT22;13001;51.968;5.918;2024-01-30T14:37:39;11.90;97.20
22769;DHT22;13001;51.968;5.918;2024-01-30T14:40:07;11.90;97.20
22769;DHT22;13001;51.968;5.918;2024-01-30T14:42:35;11.90;97.60
22769;DHT22;13001;51.968;5.918;2024-01-30T14:45:05;11.90;97.40
22769;DHT22;13001;51.968;5.918;2024-01-30T14:47:33;11.90;97.40
22769;DHT22;13001;51.968;5.918;2024-01-30T14:50:03;11.90;97.40
22769;DHT22;13001;51.968;5.918;2024-01-30T14:52:32;11.90;97.30
22769;DHT22;13001;51.968;5.918;2024-01-30T14:55:01;11.90;97.60
22769;DHT22;13001;51.968;5.918;2024-01-30T14:57:28;11.90;97.40
22769;DHT22;13001;51.968;5.918;2024-01-30T14:59:56;11.90;97.40
22769;DHT22;13001;51.968;5.918;2024-01-30T15:02:23;11.80;97.40
22769;DHT22;13001;51.968;5.918;2024-01-30T15:04:54;11.80;97.40
22769;DHT22;13001;51.968;5.918;2024-01-30T15:07:21;11.80;97.50
22769;DHT22;13001;51.968;5.918;2024-01-30T15:09:49;11.70;97.60
22769;DHT22;13001;51.968;5.918;2024-01-30T15:12:16;11.70;97.70
22769;DHT22;13001;51.968;5.918;2024-01-30T15:14:44;11.70;97.80
22769;DHT22;13001;51.968;5.918;2024-01-30T15:17:13;11.70;97.90
22769;DHT22;13001;51.968;5.918;2024-01-30T15:19:42;11.70;97.90
22769;DHT22;13001;51.968;5.918;2024-01-30T15:22:11;11.60;97.90
22769;DHT22;13001;51.968;5.918;2024-01-30T15:24:40;11.60;98.00
22769;DHT22;13001;51.968;5.918;2024-01-30T15:27:08;11.50;98.00
22769;DHT22;13001;51.968;5.918;2024-01-30T15:29:35;11.50;98.10
22769;DHT22;13001;51.968;5.918;2024-01-30T15:32:03;11.40;98.30
22769;DHT22;13001;51.968;5.918;2024-01-30T15:34:30;11.40;98.40
22769;DHT22;13001;51.968;5.918;2024-01-30T15:36:58;11.40;98.50
22769;DHT22;13001;51.968;5.918;2024-01-30T15:39:26;11.30;98.50
22769;DHT22;13001;51.968;5.918;2024-01-30T15:41:53;11.30;98.60